sensor_id;sensor_type;location;lat;lon;timestamp;pressure;altitude;pressure_sealevel;temperature;humidity
3668;BME280;24099;47.102;15.440;2022-09-09T00:01:28;96963.91;;;13.32;100.00
3668;BME280;24099;47.102;15.440;2022-09-09T00:04:03;96967.78;;;13.36;100.00
3668;BME280;24099;47.102;15.440;2022-09-09T00:06:43;96963.91;;;13.25;100.00
3668;BME280;24099;47.102;15.440;2022-09-09T00:09:15;96954.53;;;13.09;100.00
3668;BME280;24099;47.102;15.440;2022-09-09T00:11:49;96965.09;;;13.09;100.00
3668;BME280;24099;47.102;15.440;2022-09-09T00:14:25;96961.41;;;13.04;100.00
3668;BME280;24099;47.102;15.440;2022-09-09T00:17:07;96964.69;;;13.39;100.00
3668;BME280;24099;47.102;15.440;2022-09-09T00:19:44;96976.88;;;13.14;100.00
3668;BME280;24099;47.102;15.440;2022-09-09T00:22:19;96969.59;;;13.16;100.00
3668;BME280;24099;47.102;15.440;2022-09-09T00:24:51;96968.97;;;13.27;100.00
3668;BME280;24099;47.102;15.440;2022-09-09T00:27:28;96962.44;;;12.96;100.00
3668;BME280;24099;47.102;15.440;2022-09-09T00:30:11;96970.56;;;12.95;100.00
3668;BME280;24099;47.102;15.440;2022-09-09T00:32:40;96961.63;;;13.02;100.00
3668;BME280;24099;47.102;15.440;2022-09-09T00:35:17;96965.09;;;12.96;100.00
3668;BME280;24099;47.102;15.440;2022-09-09T00:37:48;96968.13;;;12.87;100.00
3668;BME280;24099;47.102;15.440;2022-09-09T00:40:24;96963.88;;;13.05;100.00
3668;BME280;24099;47.102;15.440;2022-09-09T00:43:21;96964.69;;;13.13;100.00
3668;BME280;24099;47.102;15.440;2022-09-09T00:46:27;96970.19;;;13.11;100.00
3668;BME280;24099;47.102;15.440;2022-09-09T00:49:07;96974.59;;;12.84;100.00
3668;BME280;24099;47.102;15.440;2022-09-09T00:51:46;96963.84;;;12.86;100.00
3668;BME280;24099;47.102;15.440;2022-09-09T00:54:32;96962.63;;;12.88;100.00
3668;BME280;24099;47.102;15.440;2022-09-09T00:57:14;96969.53;;;12.89;100.00
3668;BME280;24099;47.102;15.440;2022-09-09T00:59:52;96965.22;;;12.62;100.00
3668;BME280;24099;47.102;15.440;2022-09-09T01:02:28;96970.31;;;12.70;100.00
3668;BME280;24099;47.102;15.440;2022-09-09T01:05:05;96965.03;;;12.63;100.00
3668;BME280;24099;47.102;15.440;2022-09-09T01:07:36;96959.97;;;12.82;100.00
3668;BME280;24099;47.102;15.440;2022-09-09T01:10:09;96963.03;;;12.79;100.00
3668;BME280;24099;47.102;15.440;2022-09-09T01:12:42;96956.28;;;12.63;100.00
3668;BME280;24099;47.102;15.440;2022-09-09T01:15:24;96957.50;;;12.60;100.00
3668;BME280;24099;47.102;15.440;2022-09-09T01:18:00;96955.28;;;12.64;100.00
3668;BME280;24099;47.102;15.440;2022-09-09T01:20:37;96962.16;;;12.52;100.00
3668;BME280;24099;47.102;15.440;2022-09-09T01:23:32;96965.03;;;12.57;100.00
3668;BME280;24099;47.102;15.440;2022-09-09T01:26:26;96957.28;;;12.62;100.00
3668;BME280;24099;47.102;15.440;2022-09-09T01:28:58;96959.16;;;12.74;100.00
3668;BME280;24099;47.102;15.440;2022-09-09T01:31:36;96962.63;;;12.88;100.00
3668;BME280;24099;47.102;15.440;2022-09-09T01:34:11;96973.19;;;12.82;100.00
3668;BME280;24099;47.102;15.440;2022-09-09T01:36:43;96971.13;;;12.64;100.00
3668;BME280;24099;47.102;15.440;2022-09-09T01:39:12;96977.63;;;12.68;100.00
3668;BME280;24099;47.102;15.440;2022-09-09T01:41:43;96974.00;;;12.75;100.00
3668;BME280;24099;47.102;15.440;2022-09-09T01:44:13;96975.75;;;12.49;100.00
3668;BME280;24099;47.102;15.440;2022-09-09T01:46:44;96977.53;;;12.35;100.00
3668;BME280;24099;47.102;15.440;2022-09-09T01:49:19;96973.88;;;12.36;100.00
3668;BME280;24099;47.102;15.440;2022-09-09T01:51:50;96979.41;;;12.48;100.00
3668;BME280;24099;47.102;15.440;2022-09-09T01:54:26;96979.38;;;12.34;100.00
3668;BME280;24099;47.102;15.440;2022-09-09T01:57:06;96975.47;;;12.30;100.00
3668;BME280;24099;47.102;15.440;2022-09-09T01:59:54;96974.25;;;12.26;100.00
3668;BME280;24099;47.102;15.440;2022-09-09T02:02:32;96970.22;;;12.30;100.00
3668;BME280;24099;47.102;15.440;2022-09-09T02:05:21;96974.97;;;12.55;100.00
3668;BME280;24099;47.102;15.440;2022-09-09T02:08:03;96972.25;;;12.41;100.00
3668;BME280;24099;47.102;15.440;2022-09-09T02:10:46;96965.56;;;12.39;100.00
3668;BME280;24099;47.102;15.440;2022-09-09T02:13:32;96973.94;;;12.56;100.00
3668;BME280;24099;47.102;15.440;2022-09-09T02:16:08;96972.13;;;12.63;100.00
3668;BME280;24099;47.102;15.440;2022-09-09T02:18:45;96963.94;;;12.38;100.00
3668;BME280;24099;47.102;15.440;2022-09-09T02:21:16;96971.06;;;12.37;100.00
3668;BME280;24099;47.102;15.440;2022-09-09T02:23:46;96968.00;;;12.40;100.00
3668;BME280;24099;47.102;15.440;2022-09-09T02:26:15;96965.38;;;12.47;100.00
3668;BME280;24099;47.102;15.440;2022-09-09T02:28:55;96968.25;;;12.52;100.00
3668;BME280;24099;47.102;15.440;2022-09-09T02:31:25;96976.59;;;12.56;100.00
3668;BME280;24099;47.102;15.440;2022-09-09T02:34:01;96992.19;;;12.44;100.00
3668;BME280;24099;47.102;15.440;2022-09-09T02:36:32;96980.38;;;12.33;100.00
3668;BME280;24099;47.102;15.440;2022-09-09T02:39:03;96983.25;;;12.38;100.00
3668;BME280;24099;47.102;15.440;2022-09-09T02:41:37;96988.31;;;12.47;100.00
3668;BME280;24099;47.102;15.440;2022-09-09T02:44:10;96991.34;;;12.43;100.00
3668;BME280;24099;47.102;15.440;2022-09-09T02:47:06;96991.78;;;12.47;100.00
3668;BME280;24099;47.102;15.440;2022-09-09T02:49:47;96993.59;;;12.47;100.00
3668;BME280;24099;47.102;15.440;2022-09-09T02:52:26;96999.91;;;12.46;100.00
3668;BME280;24099;47.102;15.440;2022-09-09T02:55:04;97002.16;;;12.49;100.00
3668;BME280;24099;47.102;15.440;2022-09-09T02:57:35;97004.00;;;12.55;100.00
3668;BME280;24099;47.102;15.440;2022-09-09T03:00:17;97004.81;;;12.62;100.00
3668;BME280;24099;47.102;15.440;2022-09-09T03:02:51;97017.22;;;12.68;100.00
3668;BME280;24099;47.102;15.440;2022-09-09T03:05:20;97007.88;;;12.65;100.00
3668;BME280;24099;47.102;15.440;2022-09-09T03:07:49;97013.00;;;12.73;100.00
3668;BME280;24099;47.102;15.440;2022-09-09T03:10:18;97002.22;;;12.82;100.00
3668;BME280;24099;47.102;15.440;2022-09-09T03:12:45;96999.19;;;12.78;100.00
3668;BME280;24099;47.102;15.440;2022-09-09T03:15:14;96992.28;;;12.77;100.00
3668;BME280;24099;47.102;15.440;2022-09-09T03:17:43;96986.00;;;12.78;100.00
3668;BME280;24099;47.102;15.440;2022-09-09T03:20:10;96981.53;;;12.79;100.00
3668;BME280;24099;47.102;15.440;2022-09-09T03:22:38;96980.09;;;12.76;100.00
3668;BME280;24099;47.102;15.440;2022-09-09T03:25:06;96976.00;;;12.80;100.00
3668;BME280;24099;47.102;15.440;2022-09-09T03:27:36;96963.22;;;12.84;100.00
3668;BME280;24099;47.102;15.440;2022-09-09T03:30:06;96974.22;;;13.00;100.00
3668;BME280;24099;47.102;15.440;2022-09-09T03:32:36;96977.28;;;13.04;100.00
3668;BME280;24099;47.102;15.440;2022-09-09T03:35:04;96991.09;;;13.06;100.00
3668;BME280;24099;47.102;15.440;2022-09-09T03:37:33;96995.97;;;12.96;100.00
3668;BME280;24099;47.102;15.440;2022-09-09T03:40:00;97001.84;;;12.91;100.00
3668;BME280;24099;47.102;15.440;2022-09-09T03:42:28;97010.63;;;12.98;100.00
3668;BME280;24099;47.102;15.440;2022-09-09T03:44:57;97005.72;;;12.95;100.00
3668;BME280;24099;47.102;15.440;2022-09-09T03:47:26;97005.53;;;12.97;100.00
3668;BME280;24099;47.102;15.440;2022-09-09T03:50:02;97005.09;;;12.87;100.00
3668;BME280;24099;47.102;15.440;2022-09-09T03:52:30;97010.97;;;12.75;100.00
3668;BME280;24099;47.102;15.440;2022-09-09T03:54:57;97012.16;;;12.66;100.00
3668;BME280;24099;47.102;15.440;2022-09-09T03:57:25;97009.50;;;12.66;100.00
3668;BME280;24099;47.102;15.440;2022-09-09T03:59:52;97008.34;;;12.75;100.00
3668;BME280;24099;47.102;15.440;2022-09-09T04:02:21;97012.56;;;12.70;100.00
3668;BME280;24099;47.102;15.440;2022-09-09T04:04:48;97010.53;;;12.59;100.00
3668;BME280;24099;47.102;15.440;2022-09-09T04:07:18;97005.84;;;12.54;100.00
3668;BME280;24099;47.102;15.440;2022-09-09T04:09:45;97012.53;;;12.63;100.00
3668;BME280;24099;47.102;15.440;2022-09-09T04:12:14;97010.53;;;12.59;100.00
3668;BME280;24099;47.102;15.440;2022-09-09T04:14:42;97011.94;;;12.61;100.00
3668;BME280;24099;47.102;15.440;2022-09-09T04:17:10;97012.34;;;12.65;100.00
3668;BME280;24099;47.102;15.440;2022-09-09T04:19:38;97006.44;;;12.63;100.00
3668;BME280;24099;47.102;15.440;2022-09-09T04:22:05;97008.28;;;12.62;100.00
3668;BME280;24099;47.102;15.440;2022-09-09T04:24:34;97000.78;;;12.66;100.00
3668;BME280;24099;47.102;15.440;2022-09-09T04:27:02;96999.16;;;12.58;100.00
3668;BME280;24099;47.102;15.440;2022-09-09T04:29:33;96987.38;;;12.67;100.00
3668;BME280;24099;47.102;15.440;2022-09-09T04:32:01;96991.44;;;12.70;100.00
3668;BME280;24099;47.102;15.440;2022-09-09T04:34:29;96996.09;;;12.68;100.00
3668;BME280;24099;47.102;15.440;2022-09-09T04:36:57;96997.13;;;12.67;100.00
3668;BME280;24099;47.102;15.440;2022-09-09T04:39:27;96993.69;;;12.73;100.00
3668;BME280;24099;47.102;15.440;2022-09-09T04:41:56;96987.78;;;12.71;100.00
3668;BME280;24099;47.102;15.440;2022-09-09T04:44:24;96985.75;;;12.66;100.00
3668;BME280;24099;47.102;15.440;2022-09-09T04:46:51;96986.94;;;12.64;100.00
3668;BME280;24099;47.102;15.440;2022-09-09T04:49:19;96977.44;;;12.83;100.00
3668;BME280;24099;47.102;15.440;2022-09-09T04:51:49;96981.31;;;12.87;100.00
3668;BME280;24099;47.102;15.440;2022-09-09T04:54:17;96986.44;;;12.95;100.00
3668;BME280;24099;47.102;15.440;2022-09-09T04:56:46;96992.72;;;12.94;100.00
3668;BME280;24099;47.102;15.440;2022-09-09T04:59:15;96983.38;;;12.91;100.00
3668;BME280;24099;47.102;15.440;2022-09-09T05:01:47;96983.97;;;13.00;100.00
3668;BME280;24099;47.102;15.440;2022-09-09T05:04:14;96997.59;;;13.03;100.00
3668;BME280;24099;47.102;15.440;2022-09-09T05:06:42;96995.56;;;12.92;100.00
3668;BME280;24099;47.102;15.440;2022-09-09T05:09:12;97000.84;;;12.92;100.00
3668;BME280;24099;47.102;15.440;2022-09-09T05:11:39;96996.56;;;12.91;100.00
3668;BME280;24099;47.102;15.440;2022-09-09T05:14:19;96998.00;;;13.00;100.00
3668;BME280;24099;47.102;15.440;2022-09-09T05:16:46;96983.16;;;12.93;100.00
3668;BME280;24099;47.102;15.440;2022-09-09T05:19:15;96987.03;;;13.03;100.00
3668;BME280;24099;47.102;15.440;2022-09-09T05:21:48;96985.84;;;13.13;100.00
3668;BME280;24099;47.102;15.440;2022-09-09T05:24:20;96979.72;;;13.12;100.00
3668;BME280;24099;47.102;15.440;2022-09-09T05:26:51;96978.97;;;13.18;100.00
3668;BME280;24099;47.102;15.440;2022-09-09T05:29:20;96992.78;;;13.33;100.00
3668;BME280;24099;47.102;15.440;2022-09-09T05:31:48;96990.13;;;13.27;100.00
3668;BME280;24099;47.102;15.440;2022-09-09T05:34:19;96985.25;;;13.37;100.00
3668;BME280;24099;47.102;15.440;2022-09-09T05:36:47;96981.38;;;13.46;100.00
3668;BME280;24099;47.102;15.440;2022-09-09T05:39:15;96972.22;;;13.55;100.00
3668;BME280;24099;47.102;15.440;2022-09-09T05:41:43;96976.47;;;13.63;100.00
3668;BME280;24099;47.102;15.440;2022-09-09T05:44:10;96967.94;;;13.67;100.00
3668;BME280;24099;47.102;15.440;2022-09-09T05:46:40;96974.66;;;13.63;100.00
3668;BME280;24099;47.102;15.440;2022-09-09T05:49:08;96988.47;;;13.72;100.00
3668;BME280;24099;47.102;15.440;2022-09-09T05:51:38;96995.38;;;13.79;100.00
3668;BME280;24099;47.102;15.440;2022-09-09T05:54:10;96990.88;;;13.80;100.00
3668;BME280;24099;47.102;15.440;2022-09-09T05:56:43;96990.88;;;13.87;100.00
3668;BME280;24099;47.102;15.440;2022-09-09T05:59:10;96994.34;;;13.94;100.00
3668;BME280;24099;47.102;15.440;2022-09-09T06:01:40;96998.59;;;14.01;100.00
3668;BME280;24099;47.102;15.440;2022-09-09T06:04:13;97003.66;;;14.16;100.00
3668;BME280;24099;47.102;15.440;2022-09-09T06:06:41;97000.34;;;14.21;100.00
3668;BME280;24099;47.102;15.440;2022-09-09T06:09:15;96996.06;;;14.33;100.00
3668;BME280;24099;47.102;15.440;2022-09-09T06:11:43;96999.91;;;14.43;100.00
3668;BME280;24099;47.102;15.440;2022-09-09T06:14:13;96988.88;;;14.53;100.00
3668;BME280;24099;47.102;15.440;2022-09-09T06:16:44;96991.53;;;14.53;100.00
3668;BME280;24099;47.102;15.440;2022-09-09T06:19:17;96976.03;;;14.50;100.00
3668;BME280;24099;47.102;15.440;2022-09-09T06:21:45;96982.50;;;14.61;100.00
3668;BME280;24099;47.102;15.440;2022-09-09T06:24:14;96969.44;;;14.66;100.00
3668;BME280;24099;47.102;15.440;2022-09-09T06:26:44;96980.41;;;14.76;100.00
3668;BME280;24099;47.102;15.440;2022-09-09T06:29:15;96978.91;;;14.80;100.00
3668;BME280;24099;47.102;15.440;2022-09-09T06:31:44;96971.78;;;14.80;100.00
3668;BME280;24099;47.102;15.440;2022-09-09T06:34:19;96983.16;;;14.88;100.00
3668;BME280;24099;47.102;15.440;2022-09-09T06:36:50;96989.84;;;14.97;100.00
3668;BME280;24099;47.102;15.440;2022-09-09T06:39:18;96988.97;;;15.03;100.00
3668;BME280;24099;47.102;15.440;2022-09-09T06:41:46;96987.09;;;15.10;100.00
3668;BME280;24099;47.102;15.440;2022-09-09T06:44:34;96977.84;;;15.19;100.00
3668;BME280;24099;47.102;15.440;2022-09-09T06:47:06;96977.16;;;15.30;100.00
3668;BME280;24099;47.102;15.440;2022-09-09T06:49:34;96978.34;;;15.34;100.00
3668;BME280;24099;47.102;15.440;2022-09-09T06:52:05;96976.72;;;15.33;100.00
3668;BME280;24099;47.102;15.440;2022-09-09T06:54:35;96984.34;;;15.48;100.00
3668;BME280;24099;47.102;15.440;2022-09-09T06:57:03;96976.84;;;15.70;100.00
3668;BME280;24099;47.102;15.440;2022-09-09T06:59:34;96987.09;;;15.84;100.00
3668;BME280;24099;47.102;15.440;2022-09-09T07:02:02;96987.22;;;15.96;100.00
3668;BME280;24099;47.102;15.440;2022-09-09T07:04:32;96994.94;;;15.98;100.00
3668;BME280;24099;47.102;15.440;2022-09-09T07:06:59;96999.19;;;15.99;100.00
3668;BME280;24099;47.102;15.440;2022-09-09T07:09:27;96998.28;;;16.11;100.00
3668;BME280;24099;47.102;15.440;2022-09-09T07:11:55;97005.22;;;16.12;100.00
3668;BME280;24099;47.102;15.440;2022-09-09T07:14:26;97011.03;;;16.21;100.00
3668;BME280;24099;47.102;15.440;2022-09-09T07:16:58;97015.59;;;16.14;100.00
3668;BME280;24099;47.102;15.440;2022-09-09T07:19:30;97022.00;;;16.06;100.00
3668;BME280;24099;47.102;15.440;2022-09-09T07:21:58;97017.50;;;16.07;100.00
3668;BME280;24099;47.102;15.440;2022-09-09T07:24:25;97024.22;;;16.09;100.00
3668;BME280;24099;47.102;15.440;2022-09-09T07:26:56;97024.44;;;16.08;100.00
3668;BME280;24099;47.102;15.440;2022-09-09T07:29:24;97017.00;;;15.98;100.00
3668;BME280;24099;47.102;15.440;2022-09-09T07:31:52;97015.66;;;16.26;100.00
3668;BME280;24099;47.102;15.440;2022-09-09T07:34:24;97015.66;;;16.26;100.00
3668;BME280;24099;47.102;15.440;2022-09-09T07:36:54;97015.72;;;16.19;100.00
3668;BME280;24099;47.102;15.440;2022-09-09T07:39:23;97016.53;;;16.19;100.00
3668;BME280;24099;47.102;15.440;2022-09-09T07:41:53;97017.94;;;16.22;100.00
3668;BME280;24099;47.102;15.440;2022-09-09T07:44:24;97020.16;;;16.25;100.00
3668;BME280;24099;47.102;15.440;2022-09-09T07:47:06;97015.06;;;16.24;100.00
3668;BME280;24099;47.102;15.440;2022-09-09T07:49:41;97019.13;;;16.26;100.00
3668;BME280;24099;47.102;15.440;2022-09-09T07:52:10;97016.78;;;16.18;100.00
3668;BME280;24099;47.102;15.440;2022-09-09T07:54:41;97021.56;;;16.28;100.00
3668;BME280;24099;47.102;15.440;2022-09-09T07:57:10;97026.22;;;16.32;100.00
3668;BME280;24099;47.102;15.440;2022-09-09T07:59:38;97025.34;;;16.38;100.00
3668;BME280;24099;47.102;15.440;2022-09-09T08:02:08;97033.22;;;16.45;100.00
3668;BME280;24099;47.102;15.440;2022-09-09T08:04:36;97034.56;;;16.36;100.00
3668;BME280;24099;47.102;15.440;2022-09-09T08:07:04;97035.97;;;16.38;100.00
3668;BME280;24099;47.102;15.440;2022-09-09T08:09:42;97037.34;;;16.41;100.00
3668;BME280;24099;47.102;15.440;2022-09-09T08:12:17;97031.81;;;16.42;100.00
3668;BME280;24099;47.102;15.440;2022-09-09T08:14:44;97034.34;;;16.37;100.00
3668;BME280;24099;47.102;15.440;2022-09-09T08:17:12;97028.22;;;16.37;100.00
3668;BME280;24099;47.102;15.440;2022-09-09T08:19:39;97022.22;;;16.41;100.00
3668;BME280;24099;47.102;15.440;2022-09-09T08:22:12;97021.56;;;16.46;100.00
3668;BME280;24099;47.102;15.440;2022-09-09T08:24:40;97020.09;;;16.50;100.00
3668;BME280;24099;47.102;15.440;2022-09-09T08:27:09;97027.94;;;16.63;100.00
3668;BME280;24099;47.102;15.440;2022-09-09T08:29:38;97034.19;;;16.69;100.00
3668;BME280;24099;47.102;15.440;2022-09-09T08:32:06;97031.47;;;16.75;100.00
3668;BME280;24099;47.102;15.440;2022-09-09T08:34:35;97036.69;;;16.82;100.00
3668;BME280;24099;47.102;15.440;2022-09-09T08:37:07;97043.41;;;16.84;100.00
3668;BME280;24099;47.102;15.440;2022-09-09T08:39:39;97041.28;;;17.05;100.00
3668;BME280;24099;47.102;15.440;2022-09-09T08:42:28;97043.25;;;16.98;100.00
3668;BME280;24099;47.102;15.440;2022-09-09T08:45:15;97048.38;;;17.11;100.00
3668;BME280;24099;47.102;15.440;2022-09-09T08:48:23;97043.47;;;16.96;100.00
3668;BME280;24099;47.102;15.440;2022-09-09T08:50:57;97041.84;;;16.95;100.00
3668;BME280;24099;47.102;15.440;2022-09-09T08:53:35;97039.06;;;17.02;100.00
3668;BME280;24099;47.102;15.440;2022-09-09T08:56:12;97043.13;;;17.04;100.00
3668;BME280;24099;47.102;15.440;2022-09-09T08:58:48;97044.75;;;17.05;100.00
3668;BME280;24099;47.102;15.440;2022-09-09T09:01:43;97040.84;;;17.08;100.00
3668;BME280;24099;47.102;15.440;2022-09-09T09:04:38;97040.53;;;17.16;100.00
3668;BME280;24099;47.102;15.440;2022-09-09T09:07:22;97040.31;;;17.17;100.00
3668;BME280;24099;47.102;15.440;2022-09-09T09:10:01;97034.06;;;17.23;100.00
3668;BME280;24099;47.102;15.440;2022-09-09T09:12:39;97031.66;;;17.34;100.00
3668;BME280;24099;47.102;15.440;2022-09-09T09:15:17;97047.09;;;17.55;100.00
3668;BME280;24099;47.102;15.440;2022-09-09T09:17:46;97043.41;;;17.56;100.00
3668;BME280;24099;47.102;15.440;2022-09-09T09:20:17;97051.25;;;17.51;100.00
3668;BME280;24099;47.102;15.440;2022-09-09T09:22:49;97048.09;;;17.72;100.00
3668;BME280;24099;47.102;15.440;2022-09-09T09:25:21;97050.38;;;17.80;100.00
3668;BME280;24099;47.102;15.440;2022-09-09T09:27:57;97047.03;;;17.85;100.00
3668;BME280;24099;47.102;15.440;2022-09-09T09:30:32;97044.94;;;17.99;100.00
3668;BME280;24099;47.102;15.440;2022-09-09T09:33:12;97049.38;;;18.16;100.00
3668;BME280;24099;47.102;15.440;2022-09-09T09:35:44;97043.69;;;18.13;100.00
3668;BME280;24099;47.102;15.440;2022-09-09T09:38:18;97038.13;;;18.26;100.00
3668;BME280;24099;47.102;15.440;2022-09-09T09:40:52;97027.88;;;18.46;100.00
3668;BME280;24099;47.102;15.440;2022-09-09T09:43:27;97030.34;;;18.24;100.00
3668;BME280;24099;47.102;15.440;2022-09-09T09:46:00;97026.06;;;18.23;100.00
3668;BME280;24099;47.102;15.440;2022-09-09T09:48:30;97022.19;;;18.66;100.00
3668;BME280;24099;47.102;15.440;2022-09-09T09:51:01;97037.72;;;18.69;100.00
3668;BME280;24099;47.102;15.440;2022-09-09T09:53:33;97031.56;;;18.69;100.00
3668;BME280;24099;47.102;15.440;2022-09-09T09:56:03;97032.38;;;18.69;100.00
3668;BME280;24099;47.102;15.440;2022-09-09T09:58:37;97031.53;;;18.80;100.00
3668;BME280;24099;47.102;15.440;2022-09-09T10:01:24;97030.34;;;18.88;100.00
3668;BME280;24099;47.102;15.440;2022-09-09T10:03:55;97024.13;;;19.27;100.00
3668;BME280;24099;47.102;15.440;2022-09-09T10:06:36;97023.53;;;19.71;100.00
3668;BME280;24099;47.102;15.440;2022-09-09T10:09:22;97032.09;;;20.06;100.00
3668;BME280;24099;47.102;15.440;2022-09-09T10:12:00;97021.84;;;19.98;100.00
3668;BME280;24099;47.102;15.440;2022-09-09T10:14:39;97019.31;;;20.30;100.00
3668;BME280;24099;47.102;15.440;2022-09-09T10:17:21;97031.00;;;20.24;100.00
3668;BME280;24099;47.102;15.440;2022-09-09T10:20:13;97026.09;;;20.16;100.00
3668;BME280;24099;47.102;15.440;2022-09-09T10:22:50;97027.19;;;19.98;100.00
3668;BME280;24099;47.102;15.440;2022-09-09T10:25:35;97024.00;;;20.40;100.00
3668;BME280;24099;47.102;15.440;2022-09-09T10:28:32;97016.31;;;20.65;100.00
3668;BME280;24099;47.102;15.440;2022-09-09T10:31:17;97016.13;;;20.50;100.00
3668;BME280;24099;47.102;15.440;2022-09-09T10:34:01;97008.19;;;20.55;100.00
3668;BME280;24099;47.102;15.440;2022-09-09T10:36:30;97011.22;;;20.63;100.00
3668;BME280;24099;47.102;15.440;2022-09-09T10:39:03;96997.78;;;20.58;100.00
3668;BME280;24099;47.102;15.440;2022-09-09T10:41:44;97002.44;;;20.46;100.00
3668;BME280;24099;47.102;15.440;2022-09-09T10:44:49;96996.16;;;21.06;100.00
3668;BME280;24099;47.102;15.440;2022-09-09T10:47:43;96997.53;;;21.09;100.00
3668;BME280;24099;47.102;15.440;2022-09-09T10:51:02;97001.50;;;21.06;100.00
3668;BME280;24099;47.102;15.440;2022-09-09T10:53:48;97003.47;;;20.89;100.00
3668;BME280;24099;47.102;15.440;2022-09-09T10:56:21;96990.53;;;20.81;100.00
3668;BME280;24099;47.102;15.440;2022-09-09T10:58:54;96994.97;;;20.92;100.00
3668;BME280;24099;47.102;15.440;2022-09-09T11:01:28;96997.66;;;20.48;100.00
3668;BME280;24099;47.102;15.440;2022-09-09T11:04:03;96994.66;;;20.67;100.00
3668;BME280;24099;47.102;15.440;2022-09-09T11:06:39;96994.59;;;20.61;100.00
3668;BME280;24099;47.102;15.440;2022-09-09T11:09:15;96992.31;;;20.70;100.00
3668;BME280;24099;47.102;15.440;2022-09-09T11:11:50;96991.31;;;20.76;100.00
3668;BME280;24099;47.102;15.440;2022-09-09T11:14:26;96988.59;;;20.49;100.00
3668;BME280;24099;47.102;15.440;2022-09-09T11:16:59;96986.47;;;20.51;100.00
3668;BME280;24099;47.102;15.440;2022-09-09T11:19:33;96986.56;;;20.61;100.00
3668;BME280;24099;47.102;15.440;2022-09-09T11:22:06;96986.97;;;20.48;100.00
3668;BME280;24099;47.102;15.440;2022-09-09T11:24:40;96986.41;;;20.68;100.00
3668;BME280;24099;47.102;15.440;2022-09-09T11:27:14;96986.28;;;20.36;100.00
3668;BME280;24099;47.102;15.440;2022-09-09T11:30:10;96978.25;;;20.36;100.00
3668;BME280;24099;47.102;15.440;2022-09-09T11:33:15;96969.66;;;20.12;100.00
3668;BME280;24099;47.102;15.440;2022-09-09T11:38:58;96957.69;;;20.20;100.00
3668;BME280;24099;47.102;15.440;2022-09-09T11:41:35;96961.66;;;20.34;100.00
3668;BME280;24099;47.102;15.440;2022-09-09T11:44:11;96954.03;;;20.26;100.00
3668;BME280;24099;47.102;15.440;2022-09-09T11:46:40;96938.72;;;20.16;100.00
3668;BME280;24099;47.102;15.440;2022-09-09T11:49:27;96936.34;;;20.42;100.00
3668;BME280;24099;47.102;15.440;2022-09-09T11:51:56;96920.63;;;20.45;100.00
3668;BME280;24099;47.102;15.440;2022-09-09T11:54:31;96932.63;;;20.43;100.00
3668;BME280;24099;47.102;15.440;2022-09-09T11:56:59;96936.53;;;20.35;100.00
3668;BME280;24099;47.102;15.440;2022-09-09T11:59:29;96935.97;;;20.33;100.00
3668;BME280;24099;47.102;15.440;2022-09-09T12:01:58;96949.72;;;20.42;100.00
3668;BME280;24099;47.102;15.440;2022-09-09T12:04:35;96929.31;;;20.36;100.00
3668;BME280;24099;47.102;15.440;2022-09-09T12:07:19;96923.03;;;20.47;100.00
3668;BME280;24099;47.102;15.440;2022-09-09T12:09:54;96917.75;;;20.52;100.00
3668;BME280;24099;47.102;15.440;2022-09-09T12:12:28;96913.53;;;20.56;100.00
3668;BME280;24099;47.102;15.440;2022-09-09T12:17:49;96902.03;;;20.55;100.00
3668;BME280;24099;47.102;15.440;2022-09-09T12:20:20;96906.09;;;20.63;100.00
3668;BME280;24099;47.102;15.440;2022-09-09T12:23:27;96902.72;;;20.46;100.00
3668;BME280;24099;47.102;15.440;2022-09-09T12:26:30;96892.06;;;20.51;100.00
3668;BME280;24099;47.102;15.440;2022-09-09T12:29:11;96898.31;;;20.61;100.00
3668;BME280;24099;47.102;15.440;2022-09-09T12:31:46;96903.34;;;20.53;100.00
3668;BME280;24099;47.102;15.440;2022-09-09T12:34:27;96894.97;;;20.71;100.00
3668;BME280;24099;47.102;15.440;2022-09-09T12:37:02;96898.50;;;20.77;100.00
3668;BME280;24099;47.102;15.440;2022-09-09T12:39:35;96899.44;;;20.66;100.00
3668;BME280;24099;47.102;15.440;2022-09-09T12:42:21;96899.63;;;20.59;100.00
3668;BME280;24099;47.102;15.440;2022-09-09T12:44:56;96887.16;;;20.43;100.00
3668;BME280;24099;47.102;15.440;2022-09-09T12:47:37;96886.47;;;20.52;100.00
3668;BME280;24099;47.102;15.440;2022-09-09T12:50:17;96890.81;;;20.58;100.00
3668;BME280;24099;47.102;15.440;2022-09-09T12:52:46;96883.19;;;20.45;100.00
3668;BME280;24099;47.102;15.440;2022-09-09T12:55:19;96883.00;;;20.52;100.00
3668;BME280;24099;47.102;15.440;2022-09-09T12:57:49;96889.50;;;20.61;100.00
3668;BME280;24099;47.102;15.440;2022-09-09T13:00:20;96890.34;;;20.67;100.00
3668;BME280;24099;47.102;15.440;2022-09-09T13:02:52;96888.72;;;20.39;100.00
3668;BME280;24099;47.102;15.440;2022-09-09T13:05:26;96882.06;;;20.41;100.00
3668;BME280;24099;47.102;15.440;2022-09-09T13:08:01;96870.13;;;20.49;100.00
3668;BME280;24099;47.102;15.440;2022-09-09T13:10:34;96872.81;;;20.49;100.00
3668;BME280;24099;47.102;15.440;2022-09-09T13:13:14;96876.09;;;20.34;100.00
3668;BME280;24099;47.102;15.440;2022-09-09T13:15:50;96871.50;;;20.51;100.00
3668;BME280;24099;47.102;15.440;2022-09-09T13:18:22;96881.25;;;20.41;100.00
3668;BME280;24099;47.102;15.440;2022-09-09T13:20:51;96863.66;;;20.23;100.00
3668;BME280;24099;47.102;15.440;2022-09-09T13:23:20;96858.09;;;20.03;100.00
3668;BME280;24099;47.102;15.440;2022-09-09T13:25:56;96847.22;;;19.87;100.00
3668;BME280;24099;47.102;15.440;2022-09-09T13:28:28;96854.56;;;19.75;100.00
3668;BME280;24099;47.102;15.440;2022-09-09T13:30:58;96841.22;;;19.75;100.00
3668;BME280;24099;47.102;15.440;2022-09-09T13:33:34;96838.22;;;19.93;100.00